Time;durP1;ratioP1;P1;durP2;ratioP2;P2;SDS_P1;SDS_P2;PMS_P1;PMS_P2;Temp;Humidity;BMP_temperature;BMP_pressure;BME280_temperature;BME280_humidity;BME280_pressure;Samples;Min_cycle;Max_cycle;Signal;HPM_P1;HPM_P2
2021/12/12 00:01:12;;;;;;;33.42;27.83;;;;;;;;;;5056294;28;24465;-58
2021/12/12 00:03:41;;;;;;;31.17;27.55;;;;;;;;;;5061180;28;24480;-58
2021/12/12 00:06:10;;;;;;;32.13;26.52;;;;;;;;;;5061535;28;24411;-58
2021/12/12 00:08:35;;;;;;;32.05;28.38;;;;;;;;;;5062043;28;24782;-57
2021/12/12 00:11:04;;;;;;;32.00;26.83;;;;;;;;;;5063502;28;24449;-58
2021/12/12 00:13:33;;;;;;;31.48;26.90;;;;;;;;;;5043884;28;24407;-58
2021/12/12 00:15:59;;;;;;;29.77;26.40;;;;;;;;;;5052314;28;24419;-58
2021/12/12 00:18:24;;;;;;;30.10;26.80;;;;;;;;;;5059285;28;24438;-58
2021/12/12 00:20:50;;;;;;;31.20;26.57;;;;;;;;;;5057827;28;24411;-59
2021/12/12 00:23:15;;;;;;;31.00;26.53;;;;;;;;;;5063200;28;24403;-58
2021/12/12 00:25:42;;;;;;;33.27;27.80;;;;;;;;;;5062572;28;24417;-58
2021/12/12 00:28:09;;;;;;;31.80;26.80;;;;;;;;;;5059292;28;24423;-59
2021/12/12 00:30:35;;;;;;;31.10;26.30;;;;;;;;;;5058042;28;24480;-59
2021/12/12 00:33:01;;;;;;;32.20;26.57;;;;;;;;;;5061744;28;24435;-59
2021/12/12 00:35:26;;;;;;;30.98;26.67;;;;;;;;;;5062044;28;24458;-59
2021/12/12 00:37:55;;;;;;;33.53;28.25;;;;;;;;;;5053759;28;24415;-59
2021/12/12 00:40:22;;;;;;;31.80;28.15;;;;;;;;;;5054073;28;24801;-59
2021/12/12 00:42:47;;;;;;;30.25;26.60;;;;;;;;;;5062586;28;24423;-59
2021/12/12 00:45:14;;;;;;;34.38;28.13;;;;;;;;;;5055933;28;24413;-59
2021/12/12 00:47:40;;;;;;;33.08;28.88;;;;;;;;;;5060027;28;24496;-58
2021/12/12 00:50:07;;;;;;;33.58;28.80;;;;;;;;;;5062007;28;24918;-58
2021/12/12 00:52:32;;;;;;;31.70;26.20;;;;;;;;;;5061159;28;25041;-58
2021/12/12 00:54:58;;;;;;;29.90;26.47;;;;;;;;;;5052794;28;24426;-59
2021/12/12 00:57:23;;;;;;;29.73;26.25;;;;;;;;;;5063088;28;24423;-58
2021/12/12 00:59:48;;;;;;;29.40;26.10;;;;;;;;;;5061137;28;24438;-58
2021/12/12 01:02:21;;;;;;;30.47;26.40;;;;;;;;;;5058852;28;24411;-58
2021/12/12 01:04:47;;;;;;;29.20;25.60;;;;;;;;;;5059051;28;24943;-58
2021/12/12 01:07:13;;;;;;;35.65;29.30;;;;;;;;;;5060668;28;24473;-58
2021/12/12 01:09:43;;;;;;;28.50;25.08;;;;;;;;;;5058226;28;24415;-58
2021/12/12 01:12:10;;;;;;;29.48;24.67;;;;;;;;;;5059751;28;24433;-57
2021/12/12 01:14:40;;;;;;;29.13;25.65;;;;;;;;;;5057659;28;24421;-57
2021/12/12 01:17:19;;;;;;;26.92;23.40;;;;;;;;;;5060591;28;24407;-57
2021/12/12 01:19:50;;;;;;;28.88;23.90;;;;;;;;;;5054812;28;24449;-57
2021/12/12 01:22:19;;;;;;;25.98;22.63;;;;;;;;;;5059864;28;24411;-58
2021/12/12 01:24:47;;;;;;;27.42;23.60;;;;;;;;;;5054404;28;24920;-57
2021/12/12 01:27:14;;;;;;;25.13;22.42;;;;;;;;;;5060325;28;24423;-58
2021/12/12 01:29:40;;;;;;;27.25;23.38;;;;;;;;;;5050912;28;24412;-57
2021/12/12 01:32:12;;;;;;;25.50;21.80;;;;;;;;;;5060247;28;24433;-57
2021/12/12 01:34:38;;;;;;;23.83;20.42;;;;;;;;;;5054912;28;24439;-58
2021/12/12 01:37:33;;;;;;;24.35;20.58;;;;;;;;;;5058476;28;25007;-57
2021/12/12 01:40:02;;;;;;;22.50;20.15;;;;;;;;;;5049038;28;24542;-60
2021/12/12 01:42:29;;;;;;;22.55;19.38;;;;;;;;;;5062750;28;24478;-60
2021/12/12 01:45:16;;;;;;;21.88;18.63;;;;;;;;;;5059862;28;24411;-59
2021/12/12 01:47:46;;;;;;;21.47;19.27;;;;;;;;;;5062304;28;24414;-59
2021/12/12 01:50:14;;;;;;;21.17;18.98;;;;;;;;;;5056670;28;24773;-59
2021/12/12 01:52:40;;;;;;;20.23;17.80;;;;;;;;;;5052016;28;24510;-59
2021/12/12 01:55:12;;;;;;;19.53;17.37;;;;;;;;;;5056874;28;25050;-59
2021/12/12 01:57:39;;;;;;;20.98;18.67;;;;;;;;;;5058475;28;24419;-59
2021/12/12 02:00:11;;;;;;;20.27;18.15;;;;;;;;;;5044334;28;24458;-59
2021/12/12 02:02:36;;;;;;;20.90;18.52;;;;;;;;;;5062183;28;24403;-59
2021/12/12 02:05:06;;;;;;;21.90;18.80;;;;;;;;;;5058663;28;24437;-57
2021/12/12 02:07:34;;;;;;;21.02;18.63;;;;;;;;;;5059153;28;25054;-58
2021/12/12 02:10:10;;;;;;;21.02;17.70;;;;;;;;;;5056087;28;24434;-58
2021/12/12 02:12:36;;;;;;;20.55;18.35;;;;;;;;;;5063143;28;24420;-58
2021/12/12 02:15:01;;;;;;;19.80;17.70;;;;;;;;;;5064266;28;24564;-57
2021/12/12 02:17:33;;;;;;;21.98;17.85;;;;;;;;;;5064753;28;25354;-57
2021/12/12 02:20:12;;;;;;;22.75;18.38;;;;;;;;;;5049606;28;25034;-60
2021/12/12 02:36:17;;;;;;;20.58;18.38;;;;;;;;;;5058489;28;24402;-57
2021/12/12 02:38:42;;;;;;;21.80;18.50;;;;;;;;;;5063241;28;24461;-58
2021/12/12 02:41:10;;;;;;;20.40;18.20;;;;;;;;;;5061572;28;25030;-58
2021/12/12 02:43:40;;;;;;;21.25;18.40;;;;;;;;;;5064362;28;25040;-59
2021/12/12 02:46:05;;;;;;;21.10;18.70;;;;;;;;;;5059705;28;24415;-58
2021/12/12 02:48:39;;;;;;;21.20;19.00;;;;;;;;;;5065054;28;24890;-58
2021/12/12 02:51:06;;;;;;;21.23;17.70;;;;;;;;;;5062900;28;24985;-58
2021/12/12 02:53:38;;;;;;;20.80;18.60;;;;;;;;;;5055594;28;24418;-58
2021/12/12 02:56:09;;;;;;;19.58;17.48;;;;;;;;;;5065178;28;24426;-58
2021/12/12 02:58:34;;;;;;;20.70;18.17;;;;;;;;;;5064105;28;24431;-58
2021/12/12 03:01:11;;;;;;;19.10;16.90;;;;;;;;;;5062487;28;24487;-58
2021/12/12 03:03:37;;;;;;;18.90;16.90;;;;;;;;;;5063788;28;24418;-58
2021/12/12 03:06:04;;;;;;;17.92;16.08;;;;;;;;;;5056229;28;24556;-58
2021/12/12 03:08:29;;;;;;;19.30;16.60;;;;;;;;;;5060485;28;24810;-58
2021/12/12 03:10:54;;;;;;;18.35;16.35;;;;;;;;;;5060817;28;24982;-58
2021/12/12 03:13:21;;;;;;;17.85;16.05;;;;;;;;;;5057023;28;24560;-58
2021/12/12 03:15:47;;;;;;;17.70;15.45;;;;;;;;;;5046047;28;24979;-58
2021/12/12 03:18:14;;;;;;;18.13;16.13;;;;;;;;;;5062438;28;24414;-58
2021/12/12 03:20:42;;;;;;;18.15;16.25;;;;;;;;;;5061687;28;24429;-58
2021/12/12 03:23:07;;;;;;;17.27;15.38;;;;;;;;;;5064175;28;24496;-58
2021/12/12 03:25:34;;;;;;;17.70;15.70;;;;;;;;;;5062315;28;24445;-58
2021/12/12 03:27:59;;;;;;;17.80;15.90;;;;;;;;;;5053202;28;24924;-58
2021/12/12 03:30:24;;;;;;;17.23;15.03;;;;;;;;;;5064024;28;24421;-58
2021/12/12 03:32:50;;;;;;;18.70;16.27;;;;;;;;;;5062444;28;24419;-57
2021/12/12 03:35:16;;;;;;;16.88;15.02;;;;;;;;;;5058084;28;24476;-58
2021/12/12 03:37:41;;;;;;;17.85;15.27;;;;;;;;;;5062944;28;24513;-59
2021/12/12 03:40:14;;;;;;;19.70;16.55;;;;;;;;;;5059169;28;24435;-57
2021/12/12 03:42:39;;;;;;;18.00;15.32;;;;;;;;;;5063609;28;24460;-58
2021/12/12 03:45:05;;;;;;;18.80;15.47;;;;;;;;;;5059846;28;24411;-58
2021/12/12 03:47:36;;;;;;;18.42;15.85;;;;;;;;;;5063647;28;24891;-58
2021/12/12 03:50:03;;;;;;;16.65;14.85;;;;;;;;;;5059962;28;24421;-58
2021/12/12 03:52:29;;;;;;;18.90;14.88;;;;;;;;;;5059063;28;24957;-58
2021/12/12 03:54:58;;;;;;;17.38;15.43;;;;;;;;;;5063786;28;24429;-58
2021/12/12 03:57:23;;;;;;;17.75;15.85;;;;;;;;;;5061497;28;24418;-58
2021/12/12 03:59:48;;;;;;;16.70;14.70;;;;;;;;;;5062883;28;24531;-58
2021/12/12 04:02:14;;;;;;;18.47;15.70;;;;;;;;;;5060842;28;24426;-57
2021/12/12 04:04:40;;;;;;;17.00;15.20;;;;;;;;;;5057195;28;24509;-57
2021/12/12 04:07:08;;;;;;;17.27;14.35;;;;;;;;;;5060277;28;24441;-57
2021/12/12 04:09:33;;;;;;;16.60;14.80;;;;;;;;;;5063400;28;24497;-58
2021/12/12 04:12:00;;;;;;;16.67;14.50;;;;;;;;;;5059753;28;24492;-58
2021/12/12 04:14:25;;;;;;;15.07;13.48;;;;;;;;;;5062828;28;24827;-58
2021/12/12 04:16:53;;;;;;;15.40;13.70;;;;;;;;;;5055057;28;24455;-58
2021/12/12 04:19:18;;;;;;;16.17;14.48;;;;;;;;;;5062430;28;24482;-57
2021/12/12 04:21:43;;;;;;;17.87;14.40;;;;;;;;;;5060785;28;24476;-58
2021/12/12 04:24:09;;;;;;;16.20;14.50;;;;;;;;;;5062000;28;24402;-59
2021/12/12 04:26:40;;;;;;;16.30;14.60;;;;;;;;;;5061120;28;25005;-59
2021/12/12 04:29:13;;;;;;;16.02;13.88;;;;;;;;;;5061734;28;24418;-59
2021/12/12 04:31:40;;;;;;;17.35;14.63;;;;;;;;;;5053156;28;24426;-58
2021/12/12 04:34:06;;;;;;;15.93;14.32;;;;;;;;;;5058988;28;24980;-58
2021/12/12 04:36:33;;;;;;;17.60;14.85;;;;;;;;;;5058242;28;24429;-58
2021/12/12 04:39:00;;;;;;;15.60;14.00;;;;;;;;;;5049123;28;24431;-58
2021/12/12 04:41:25;;;;;;;16.52;14.23;;;;;;;;;;5058069;28;24419;-58
2021/12/12 04:43:51;;;;;;;16.60;14.73;;;;;;;;;;5058103;28;24418;-58
2021/12/12 04:46:22;;;;;;;15.90;14.20;;;;;;;;;;5056971;28;24411;-58
2021/12/12 04:51:43;;;;;;;15.55;13.95;;;;;;;;;;5061914;28;24406;-58
2021/12/12 04:54:23;;;;;;;16.02;14.00;;;;;;;;;;5058102;28;24442;-58
2021/12/12 04:56:48;;;;;;;16.10;13.77;;;;;;;;;;5061750;28;24418;-58
2021/12/12 04:59:27;;;;;;;18.02;14.23;;;;;;;;;;5059974;28;24753;-58
2021/12/12 05:01:55;;;;;;;15.50;13.52;;;;;;;;;;5060146;28;25002;-58
2021/12/12 05:04:24;;;;;;;15.95;14.30;;;;;;;;;;5061126;28;24461;-58
2021/12/12 05:06:55;;;;;;;16.05;13.90;;;;;;;;;;5057837;28;24470;-58
2021/12/12 05:09:23;;;;;;;15.18;13.57;;;;;;;;;;5059473;28;24415;-58
2021/12/12 05:11:57;;;;;;;15.27;13.33;;;;;;;;;;5061640;28;24418;-57
2021/12/12 05:14:25;;;;;;;15.20;13.60;;;;;;;;;;5062406;28;25124;-57
2021/12/12 05:16:57;;;;;;;14.32;12.82;;;;;;;;;;5060774;28;24526;-57
2021/12/12 05:19:25;;;;;;;14.60;13.10;;;;;;;;;;5060638;28;24430;-57
2021/12/12 05:21:53;;;;;;;14.40;12.90;;;;;;;;;;5062331;28;24426;-58
2021/12/12 05:24:19;;;;;;;14.57;12.95;;;;;;;;;;5058510;28;24425;-58
2021/12/12 05:26:49;;;;;;;14.68;13.10;;;;;;;;;;5045009;28;24422;-58
2021/12/12 05:29:18;;;;;;;14.82;13.02;;;;;;;;;;5062774;28;24808;-57
2021/12/12 05:31:47;;;;;;;13.48;12.07;;;;;;;;;;5058430;28;24475;-60
2021/12/12 05:34:13;;;;;;;13.75;12.35;;;;;;;;;;5061528;28;24446;-57
2021/12/12 05:36:39;;;;;;;14.43;12.93;;;;;;;;;;5061475;28;24492;-57
2021/12/12 05:39:05;;;;;;;15.37;13.47;;;;;;;;;;5059210;28;24959;-57
2021/12/12 05:41:30;;;;;;;14.60;13.10;;;;;;;;;;5058942;28;24422;-58
2021/12/12 05:43:56;;;;;;;14.53;12.23;;;;;;;;;;5056652;28;24426;-58
2021/12/12 05:46:23;;;;;;;14.57;12.27;;;;;;;;;;5061141;28;24418;-57
2021/12/12 05:48:49;;;;;;;15.67;12.70;;;;;;;;;;5064260;28;25002;-58
2021/12/12 05:51:15;;;;;;;15.05;12.80;;;;;;;;;;5061607;28;24426;-57
2021/12/12 05:53:40;;;;;;;14.60;12.63;;;;;;;;;;5066076;28;24427;-57
2021/12/12 05:56:06;;;;;;;15.43;12.70;;;;;;;;;;5063766;28;24966;-58
2021/12/12 05:58:32;;;;;;;15.90;12.57;;;;;;;;;;5065086;28;24785;-58
2021/12/12 06:00:59;;;;;;;15.38;12.77;;;;;;;;;;5062311;28;25192;-58
2021/12/12 06:03:27;;;;;;;15.35;12.55;;;;;;;;;;5059424;28;24800;-58
2021/12/12 06:05:53;;;;;;;16.33;12.50;;;;;;;;;;5064935;28;24470;-57
2021/12/12 06:08:18;;;;;;;12.98;11.57;;;;;;;;;;5065728;28;25022;-57
2021/12/12 06:10:45;;;;;;;13.93;11.97;;;;;;;;;;5065509;28;24499;-57
2021/12/12 06:13:12;;;;;;;14.52;12.55;;;;;;;;;;5054509;28;24465;-57
2021/12/12 06:15:37;;;;;;;14.57;12.10;;;;;;;;;;5057511;28;24502;-57
2021/12/12 06:18:03;;;;;;;14.30;12.37;;;;;;;;;;5059182;28;24494;-57
2021/12/12 06:20:28;;;;;;;15.30;12.70;;;;;;;;;;5059546;28;24423;-57
2021/12/12 06:22:54;;;;;;;14.90;12.70;;;;;;;;;;5061411;28;24538;-57
2021/12/12 06:25:20;;;;;;;14.00;12.50;;;;;;;;;;5064740;28;24810;-58
2021/12/12 06:27:45;;;;;;;15.27;12.90;;;;;;;;;;5065554;28;24421;-57
2021/12/12 06:30:13;;;;;;;18.17;13.77;;;;;;;;;;5059658;28;24476;-58
2021/12/12 06:32:38;;;;;;;16.52;12.60;;;;;;;;;;5052677;28;24439;-58
2021/12/12 06:35:05;;;;;;;15.45;13.15;;;;;;;;;;5061160;28;24462;-59
2021/12/12 06:37:30;;;;;;;14.20;11.90;;;;;;;;;;5063078;28;24423;-59
2021/12/12 06:39:56;;;;;;;14.40;12.00;;;;;;;;;;5061119;28;24792;-58
2021/12/12 06:42:21;;;;;;;15.43;12.03;;;;;;;;;;5056606;28;24765;-58
2021/12/12 06:44:47;;;;;;;15.77;13.00;;;;;;;;;;5055482;28;24493;-59
2021/12/12 06:47:14;;;;;;;16.20;12.20;;;;;;;;;;5063927;28;24436;-58
2021/12/12 06:49:39;;;;;;;13.98;12.30;;;;;;;;;;5068207;28;24411;-57
2021/12/12 06:52:06;;;;;;;14.17;11.73;;;;;;;;;;5060800;28;24520;-57
2021/12/12 06:54:32;;;;;;;15.90;12.53;;;;;;;;;;5049360;28;26438;-57
2021/12/12 06:56:59;;;;;;;15.23;12.10;;;;;;;;;;5059333;28;24411;-57
2021/12/12 06:59:26;;;;;;;17.55;13.45;;;;;;;;;;5058024;28;24431;-57
2021/12/12 07:01:51;;;;;;;16.85;12.75;;;;;;;;;;5062764;28;24415;-57
2021/12/12 07:04:19;;;;;;;16.23;12.50;;;;;;;;;;5062118;28;24471;-57
2021/12/12 07:06:44;;;;;;;15.85;12.82;;;;;;;;;;5062098;28;24419;-57
2021/12/12 07:09:10;;;;;;;17.20;13.50;;;;;;;;;;5045789;28;24414;-57
2021/12/12 07:11:36;;;;;;;16.40;13.55;;;;;;;;;;5064750;28;24422;-57
2021/12/12 07:14:03;;;;;;;15.68;13.15;;;;;;;;;;5060898;28;24568;-57
2021/12/12 07:16:28;;;;;;;16.00;13.00;;;;;;;;;;5054289;28;24560;-58
2021/12/12 07:18:55;;;;;;;16.37;13.90;;;;;;;;;;5057734;28;24581;-56
2021/12/12 07:21:20;;;;;;;16.70;13.50;;;;;;;;;;5062293;28;24422;-58
2021/12/12 07:23:46;;;;;;;16.15;12.85;;;;;;;;;;5063937;28;24407;-58
2021/12/12 07:26:12;;;;;;;18.20;13.87;;;;;;;;;;5059171;28;24534;-58
2021/12/12 07:28:39;;;;;;;15.48;13.20;;;;;;;;;;5049283;28;24422;-59
2021/12/12 07:31:06;;;;;;;19.77;14.85;;;;;;;;;;5057941;28;25019;-59
2021/12/12 07:33:32;;;;;;;18.88;13.88;;;;;;;;;;5054056;28;24443;-57
2021/12/12 07:35:59;;;;;;;17.65;14.40;;;;;;;;;;5048124;28;24449;-57
2021/12/12 07:38:24;;;;;;;17.98;14.38;;;;;;;;;;5061406;28;24932;-57
2021/12/12 07:40:50;;;;;;;18.20;14.20;;;;;;;;;;5063669;28;24430;-58
2021/12/12 07:43:15;;;;;;;17.00;14.75;;;;;;;;;;5060190;28;24498;-57
2021/12/12 07:45:41;;;;;;;16.90;14.00;;;;;;;;;;5058488;28;25052;-58
2021/12/12 07:48:08;;;;;;;16.80;13.93;;;;;;;;;;5049576;28;24403;-58
2021/12/12 07:50:34;;;;;;;15.75;14.05;;;;;;;;;;5062408;28;24479;-58
2021/12/12 07:52:59;;;;;;;16.87;13.63;;;;;;;;;;5042290;28;24416;-58
2021/12/12 07:55:25;;;;;;;16.93;13.20;;;;;;;;;;5056984;28;24441;-58
2021/12/12 07:57:51;;;;;;;16.63;13.70;;;;;;;;;;5057756;28;24960;-58
2021/12/12 08:00:18;;;;;;;17.38;14.10;;;;;;;;;;5063267;28;24434;-58
2021/12/12 08:02:43;;;;;;;18.42;14.00;;;;;;;;;;5062922;28;25002;-58
2021/12/12 08:05:11;;;;;;;14.80;13.30;;;;;;;;;;5059381;28;24418;-58
2021/12/12 08:07:38;;;;;;;17.67;14.60;;;;;;;;;;5055004;28;24510;-58
2021/12/12 08:10:05;;;;;;;16.73;13.43;;;;;;;;;;5054097;28;24409;-58
2021/12/12 08:12:31;;;;;;;16.35;14.10;;;;;;;;;;5057295;28;24502;-58
2021/12/12 08:14:56;;;;;;;15.52;13.82;;;;;;;;;;5059267;28;24513;-58
2021/12/12 08:17:21;;;;;;;16.97;14.20;;;;;;;;;;5062545;28;24934;-58
2021/12/12 08:19:51;;;;;;;17.17;14.47;;;;;;;;;;5060187;28;24407;-58
2021/12/12 08:22:16;;;;;;;16.90;13.90;;;;;;;;;;5045099;28;24407;-59
2021/12/12 08:24:41;;;;;;;15.83;13.80;;;;;;;;;;5047752;28;24520;-58
2021/12/12 08:27:07;;;;;;;18.07;13.70;;;;;;;;;;5060621;28;24964;-59
2021/12/12 08:29:34;;;;;;;16.00;14.30;;;;;;;;;;5059284;28;24510;-58
2021/12/12 08:32:02;;;;;;;15.50;13.50;;;;;;;;;;5055467;28;24481;-58
2021/12/12 08:34:27;;;;;;;16.90;14.50;;;;;;;;;;5050595;28;24435;-58
2021/12/12 08:36:54;;;;;;;16.07;14.03;;;;;;;;;;5060647;28;24418;-58
2021/12/12 08:39:19;;;;;;;15.93;14.02;;;;;;;;;;5060556;28;24430;-57
2021/12/12 08:41:46;;;;;;;16.27;14.15;;;;;;;;;;5059178;28;24410;-58
2021/12/12 08:44:11;;;;;;;17.50;15.60;;;;;;;;;;5055316;28;24406;-58
2021/12/12 08:46:38;;;;;;;16.88;14.20;;;;;;;;;;5056112;28;24410;-58
2021/12/12 08:49:04;;;;;;;17.40;14.77;;;;;;;;;;5050264;28;24466;-59
2021/12/12 08:51:34;;;;;;;15.50;13.70;;;;;;;;;;5059600;28;24466;-60
2021/12/12 08:54:12;;;;;;;14.95;13.32;;;;;;;;;;5057129;28;25049;-59
2021/12/12 08:56:43;;;;;;;16.42;14.73;;;;;;;;;;5054612;28;24517;-59
2021/12/12 08:59:09;;;;;;;17.00;15.20;;;;;;;;;;5051599;28;25064;-59
2021/12/12 09:01:36;;;;;;;17.10;14.60;;;;;;;;;;5062050;28;24498;-59
2021/12/12 09:04:03;;;;;;;16.48;13.75;;;;;;;;;;5058635;28;24421;-59
2021/12/12 09:06:30;;;;;;;19.00;15.07;;;;;;;;;;5037436;28;24375;-59
2021/12/12 09:09:06;;;;;;;18.33;15.00;;;;;;;;;;5057333;28;24579;-59
2021/12/12 09:11:42;;;;;;;17.13;14.98;;;;;;;;;;5063086;28;24406;-59
2021/12/12 09:14:12;;;;;;;17.10;14.77;;;;;;;;;;5060607;28;24399;-58
2021/12/12 09:16:40;;;;;;;15.77;14.07;;;;;;;;;;5049185;28;24465;-58
2021/12/12 09:19:11;;;;;;;17.10;14.77;;;;;;;;;;5037143;28;24429;-58
2021/12/12 09:21:53;;;;;;;16.25;14.55;;;;;;;;;;5040891;28;24391;-58
2021/12/12 09:24:26;;;;;;;15.50;13.90;;;;;;;;;;5042640;28;24471;-58
2021/12/12 09:26:52;;;;;;;15.60;13.68;;;;;;;;;;5046253;28;24415;-58
2021/12/12 09:29:24;;;;;;;15.27;13.68;;;;;;;;;;5043258;28;24384;-58
2021/12/12 09:31:57;;;;;;;15.27;13.68;;;;;;;;;;5042372;28;24952;-58
2021/12/12 09:34:30;;;;;;;15.27;13.63;;;;;;;;;;5059095;28;25014;-58
2021/12/12 09:36:57;;;;;;;16.98;14.63;;;;;;;;;;5044728;28;24457;-59
2021/12/12 09:39:25;;;;;;;16.40;14.70;;;;;;;;;;5040661;28;24461;-59
2021/12/12 09:42:09;;;;;;;16.30;14.40;;;;;;;;;;5040717;28;24958;-59
2021/12/12 09:44:40;;;;;;;16.05;13.82;;;;;;;;;;5042512;28;24749;-59
2021/12/12 09:47:27;;;;;;;16.13;14.43;;;;;;;;;;5040919;28;24995;-59
2021/12/12 09:52:58;;;;;;;16.67;14.82;;;;;;;;;;5037066;28;24426;-59
2021/12/12 09:55:26;;;;;;;17.27;14.80;;;;;;;;;;5042748;28;24500;-59
2021/12/12 09:57:54;;;;;;;15.90;13.98;;;;;;;;;;5052553;28;24415;-59
2021/12/12 10:00:25;;;;;;;17.05;14.57;;;;;;;;;;5059902;28;24473;-58
2021/12/12 10:02:59;;;;;;;16.10;13.98;;;;;;;;;;5058007;28;24477;-60
2021/12/12 10:05:43;;;;;;;16.30;14.60;;;;;;;;;;5040570;28;24494;-60
2021/12/12 10:08:15;;;;;;;14.70;13.25;;;;;;;;;;5042344;28;24473;-61
2021/12/12 10:10:53;;;;;;;15.00;13.60;;;;;;;;;;5042623;28;24502;-60
2021/12/12 10:13:21;;;;;;;14.98;13.48;;;;;;;;;;5049618;28;24406;-61
2021/12/12 10:15:49;;;;;;;14.75;13.25;;;;;;;;;;5058429;28;24444;-61
2021/12/12 10:18:24;;;;;;;15.95;14.27;;;;;;;;;;5058279;28;24410;-60
2021/12/12 10:20:49;;;;;;;14.90;13.40;;;;;;;;;;5059370;28;24524;-60
2021/12/12 10:23:20;;;;;;;15.23;13.63;;;;;;;;;;5061813;28;24434;-58
2021/12/12 10:25:45;;;;;;;17.00;15.20;;;;;;;;;;5058862;28;25363;-58
2021/12/12 10:28:25;;;;;;;14.90;13.40;;;;;;;;;;5048139;28;24815;-60
2021/12/12 10:31:01;;;;;;;16.13;14.43;;;;;;;;;;5038913;28;24403;-60
2021/12/12 10:33:40;;;;;;;16.40;14.30;;;;;;;;;;5044962;28;24584;-60
2021/12/12 10:36:07;;;;;;;16.77;15.07;;;;;;;;;;5040328;28;24397;-60
2021/12/12 10:38:51;;;;;;;16.80;15.20;;;;;;;;;;5046544;28;25113;-60
2021/12/12 10:41:27;;;;;;;19.27;17.38;;;;;;;;;;5065947;28;24959;-60
2021/12/12 10:44:08;;;;;;;16.30;14.70;;;;;;;;;;5063271;28;24794;-60
2021/12/12 10:46:38;;;;;;;18.40;16.50;;;;;;;;;;5065801;28;24429;-60
2021/12/12 10:49:12;;;;;;;19.38;17.38;;;;;;;;;;5052338;28;24426;-59
2021/12/12 10:51:39;;;;;;;19.27;16.97;;;;;;;;;;5040261;28;24936;-59
2021/12/12 10:54:08;;;;;;;18.17;16.27;;;;;;;;;;5043499;28;25199;-59
2021/12/12 10:56:39;;;;;;;18.00;16.20;;;;;;;;;;5045331;28;25000;-60
2021/12/12 10:59:25;;;;;;;17.85;15.95;;;;;;;;;;5043671;28;24984;-59
2021/12/12 11:01:52;;;;;;;18.38;16.48;;;;;;;;;;5038331;28;24990;-59
2021/12/12 11:04:32;;;;;;;17.58;15.77;;;;;;;;;;5056924;28;24460;-59
2021/12/12 11:07:04;;;;;;;17.20;15.30;;;;;;;;;;5057199;28;24524;-59
2021/12/12 11:09:33;;;;;;;17.50;15.70;;;;;;;;;;5056624;28;24493;-60
2021/12/12 11:12:07;;;;;;;17.27;15.30;;;;;;;;;;5061745;28;24435;-59
2021/12/12 11:14:38;;;;;;;18.42;16.35;;;;;;;;;;5060275;28;25221;-59
2021/12/12 11:17:03;;;;;;;18.23;16.33;;;;;;;;;;5057398;28;24506;-59
2021/12/12 11:19:34;;;;;;;18.13;16.33;;;;;;;;;;5062453;28;24530;-59
2021/12/12 11:22:04;;;;;;;17.10;15.30;;;;;;;;;;5053932;28;24423;-59
2021/12/12 11:24:34;;;;;;;17.77;15.98;;;;;;;;;;5059521;28;25050;-58
2021/12/12 11:27:05;;;;;;;17.52;15.75;;;;;;;;;;5060824;28;24975;-59
2021/12/12 11:29:33;;;;;;;18.50;16.50;;;;;;;;;;5050710;28;24422;-58
2021/12/12 11:32:04;;;;;;;19.33;17.33;;;;;;;;;;5062873;28;25396;-58
2021/12/12 11:34:30;;;;;;;18.80;16.90;;;;;;;;;;5062739;28;24984;-59
2021/12/12 11:37:03;;;;;;;16.95;15.23;;;;;;;;;;5060998;28;24407;-59
2021/12/12 11:39:48;;;;;;;18.25;16.25;;;;;;;;;;5061947;28;24442;-59
2021/12/12 11:42:22;;;;;;;16.70;15.00;;;;;;;;;;5051845;28;24514;-59
2021/12/12 11:44:50;;;;;;;17.77;15.97;;;;;;;;;;5059661;28;24418;-58
2021/12/12 11:47:35;;;;;;;17.27;15.48;;;;;;;;;;5061648;28;24417;-59
2021/12/12 11:50:27;;;;;;;17.42;15.63;;;;;;;;;;5056086;28;24436;-59
2021/12/12 11:52:55;;;;;;;16.48;14.77;;;;;;;;;;5054022;28;24506;-59
2021/12/12 11:55:20;;;;;;;18.10;16.20;;;;;;;;;;5060215;28;24414;-58
2021/12/12 11:57:53;;;;;;;17.10;15.43;;;;;;;;;;5055266;28;24488;-59
2021/12/12 12:00:22;;;;;;;18.52;16.63;;;;;;;;;;5060224;28;24426;-59
2021/12/12 12:03:05;;;;;;;18.20;16.30;;;;;;;;;;5062440;28;24952;-59
2021/12/12 12:05:47;;;;;;;18.65;16.65;;;;;;;;;;5058306;28;24422;-59
2021/12/12 12:08:17;;;;;;;15.98;14.43;;;;;;;;;;5054292;28;24998;-59
2021/12/12 12:10:47;;;;;;;17.38;15.57;;;;;;;;;;5055023;28;24914;-59
2021/12/12 12:13:31;;;;;;;17.30;15.50;;;;;;;;;;5062335;28;24507;-58
2021/12/12 12:15:59;;;;;;;18.25;16.35;;;;;;;;;;5057550;28;24454;-59
2021/12/12 12:18:34;;;;;;;17.55;15.65;;;;;;;;;;5061046;28;24774;-59
2021/12/12 12:21:10;;;;;;;18.10;16.20;;;;;;;;;;5060265;28;24423;-59
2021/12/12 12:24:00;;;;;;;18.10;16.30;;;;;;;;;;5053725;28;24554;-59
2021/12/12 12:29:33;;;;;;;18.33;16.42;;;;;;;;;;5059310;28;24484;-59
2021/12/12 12:32:04;;;;;;;19.07;16.97;;;;;;;;;;5053921;28;25079;-58
2021/12/12 12:34:55;;;;;;;17.52;15.70;;;;;;;;;;5061400;28;24842;-58
2021/12/12 12:37:39;;;;;;;19.52;17.52;;;;;;;;;;5051188;28;25010;-58
2021/12/12 12:40:23;;;;;;;18.67;16.75;;;;;;;;;;5051563;28;24435;-61
2021/12/12 12:43:06;;;;;;;18.38;16.58;;;;;;;;;;5049643;28;24503;-58
2021/12/12 12:45:52;;;;;;;18.10;16.20;;;;;;;;;;5057172;28;24447;-58
2021/12/12 12:48:52;;;;;;;16.90;15.10;;;;;;;;;;5042956;28;24415;-58
2021/12/12 12:51:27;;;;;;;17.15;14.65;;;;;;;;;;5040667;28;24407;-58
2021/12/12 12:54:07;;;;;;;18.85;16.95;;;;;;;;;;5038633;28;24468;-58
2021/12/12 12:56:51;;;;;;;16.00;14.30;;;;;;;;;;5055700;28;24777;-58
2021/12/12 12:59:36;;;;;;;16.48;14.77;;;;;;;;;;5055373;28;24422;-58
2021/12/12 13:02:06;;;;;;;16.80;15.10;;;;;;;;;;5056950;28;24417;-60
2021/12/12 13:04:35;;;;;;;18.00;16.20;;;;;;;;;;5055492;28;24452;-58
2021/12/12 13:07:19;;;;;;;16.88;15.27;;;;;;;;;;5043381;28;24414;-59
2021/12/12 13:09:48;;;;;;;16.40;14.80;;;;;;;;;;5041438;28;24518;-60
2021/12/12 13:12:29;;;;;;;16.88;14.70;;;;;;;;;;5059315;28;24961;-59
2021/12/12 13:15:13;;;;;;;17.85;15.95;;;;;;;;;;5058225;28;24456;-60
2021/12/12 13:17:43;;;;;;;18.98;17.08;;;;;;;;;;5036590;28;24426;-59
2021/12/12 13:20:26;;;;;;;17.10;15.30;;;;;;;;;;5047690;28;24434;-60
2021/12/12 13:23:18;;;;;;;18.98;17.08;;;;;;;;;;5056046;28;24835;-58
2021/12/12 13:25:47;;;;;;;18.55;16.60;;;;;;;;;;5028430;28;24894;-57
2021/12/12 13:28:19;;;;;;;17.23;15.52;;;;;;;;;;5057489;28;24791;-58
2021/12/12 13:31:03;;;;;;;17.35;15.52;;;;;;;;;;5042097;28;24439;-58
2021/12/12 13:33:34;;;;;;;19.75;17.65;;;;;;;;;;5058761;28;24442;-58
2021/12/12 13:36:32;;;;;;;18.98;17.08;;;;;;;;;;5055077;28;24519;-61
2021/12/12 13:39:24;;;;;;;17.23;15.50;;;;;;;;;;5057244;28;24545;-61
2021/12/12 13:41:52;;;;;;;18.90;17.00;;;;;;;;;;5024007;28;24759;-60
2021/12/12 13:44:26;;;;;;;18.77;16.85;;;;;;;;;;5058319;28;24422;-60
2021/12/12 13:47:11;;;;;;;18.50;16.50;;;;;;;;;;5056940;28;24449;-60
2021/12/12 13:49:57;;;;;;;21.20;19.00;;;;;;;;;;5058548;28;24426;-59
2021/12/12 13:52:30;;;;;;;21.45;19.15;;;;;;;;;;5039903;28;24438;-59
2021/12/12 13:55:07;;;;;;;19.02;17.05;;;;;;;;;;5058783;28;24545;-59
2021/12/12 13:57:55;;;;;;;18.02;16.23;;;;;;;;;;5059454;28;24484;-59
2021/12/12 14:00:33;;;;;;;18.85;16.85;;;;;;;;;;5051761;28;24998;-60
2021/12/12 14:03:04;;;;;;;18.27;16.30;;;;;;;;;;5053495;28;24437;-60
2021/12/12 14:05:33;;;;;;;16.55;14.82;;;;;;;;;;5051664;28;24434;-60
2021/12/12 14:08:05;;;;;;;17.20;15.33;;;;;;;;;;5057771;28;24656;-59
2021/12/12 14:10:33;;;;;;;17.60;15.80;;;;;;;;;;5062103;28;24425;-59
2021/12/12 14:13:06;;;;;;;19.75;17.65;;;;;;;;;;5060790;28;24422;-60
2021/12/12 14:15:34;;;;;;;21.48;18.38;;;;;;;;;;5063348;28;24398;-60
2021/12/12 14:18:00;;;;;;;21.50;18.60;;;;;;;;;;5061452;28;24391;-58
2021/12/12 14:20:29;;;;;;;17.98;16.15;;;;;;;;;;5056893;28;24411;-58
2021/12/12 14:22:55;;;;;;;16.45;14.75;;;;;;;;;;5057890;28;24548;-59
2021/12/12 14:25:20;;;;;;;17.75;15.85;;;;;;;;;;5043088;28;25005;-59
2021/12/12 14:27:48;;;;;;;18.13;16.00;;;;;;;;;;5070710;28;24447;-58
2021/12/12 14:30:14;;;;;;;18.08;15.40;;;;;;;;;;5067876;28;24457;-59
2021/12/12 14:32:42;;;;;;;16.65;14.95;;;;;;;;;;5060924;28;24414;-59
2021/12/12 14:35:13;;;;;;;16.55;14.57;;;;;;;;;;5058525;28;24445;-58
2021/12/12 14:37:39;;;;;;;16.55;14.68;;;;;;;;;;5055230;28;24525;-58
2021/12/12 14:40:07;;;;;;;17.50;14.43;;;;;;;;;;5059494;28;24557;-58
2021/12/12 14:42:34;;;;;;;15.85;13.80;;;;;;;;;;5062474;28;24491;-58
2021/12/12 14:45:06;;;;;;;17.85;15.35;;;;;;;;;;5067920;28;24872;-58
2021/12/12 14:47:32;;;;;;;15.50;13.85;;;;;;;;;;5056727;28;24406;-59
2021/12/12 14:50:13;;;;;;;17.00;15.20;;;;;;;;;;5056035;28;24425;-61
2021/12/12 14:52:38;;;;;;;16.60;14.90;;;;;;;;;;5055198;28;24968;-58
2021/12/12 14:55:12;;;;;;;15.70;14.10;;;;;;;;;;5052737;28;24414;-59